Time;durP1;ratioP1;P1;durP2;ratioP2;P2;SDS_P1;SDS_P2;PMS_P1;PMS_P2;Temp;Humidity;BMP_temperature;BMP_pressure;BME280_temperature;BME280_humidity;BME280_pressure;Samples;Min_cycle;Max_cycle;Signal;HPM_P1;HPM_P2
2022/10/18 00:02:24;;;;;;;13.65;9.57;;;;;;;17.23;100.00;101260.75;5045360;28;20164;-75
2022/10/18 00:04:51;;;;;;;12.38;9.50;;;;;;;17.25;100.00;101264.19;5047190;28;20048;-73
2022/10/18 00:07:18;;;;;;;11.82;8.30;;;;;;;17.28;100.00;101274.72;5044477;28;20046;-75
2022/10/18 00:09:44;;;;;;;15.32;9.40;;;;;;;17.22;100.00;101259.03;5047902;28;20417;-74
2022/10/18 00:12:11;;;;;;;11.02;8.30;;;;;;;17.31;100.00;101265.66;5040560;28;20055;-76
2022/10/18 00:14:37;;;;;;;11.73;8.40;;;;;;;17.31;100.00;101257.63;5048101;28;20051;-74
2022/10/18 00:17:04;;;;;;;16.38;8.35;;;;;;;17.34;100.00;101252.03;5049321;28;20049;-75
2022/10/18 00:19:31;;;;;;;12.02;8.30;;;;;;;17.35;100.00;101259.13;5046574;28;20094;-74
2022/10/18 00:21:57;;;;;;;10.57;8.70;;;;;;;17.21;100.00;101235.03;5042340;28;20055;-75
2022/10/18 00:24:24;;;;;;;12.20;8.50;;;;;;;17.24;100.00;101251.75;5046723;28;20084;-75
2022/10/18 00:26:50;;;;;;;11.90;8.82;;;;;;;17.31;100.00;101254.94;5046592;28;20061;-75
2022/10/18 00:29:17;;;;;;;12.48;8.55;;;;;;;17.32;100.00;101259.31;5041811;28;20055;-75
2022/10/18 00:31:44;;;;;;;10.32;8.10;;;;;;;17.29;100.00;101257.72;5048315;28;20057;-74
2022/10/18 00:34:13;;;;;;;13.50;8.40;;;;;;;17.33;100.00;101256.53;5051380;28;20065;-75
2022/10/18 00:36:40;;;;;;;14.40;8.77;;;;;;;17.35;100.00;101254.63;5047079;28;20525;-73
2022/10/18 00:39:11;;;;;;;12.70;7.88;;;;;;;17.34;100.00;101247.56;5028532;28;20041;-75
2022/10/18 00:41:37;;;;;;;11.55;8.35;;;;;;;17.32;100.00;101253.94;5044533;28;20465;-75
2022/10/18 00:44:10;;;;;;;13.25;9.05;;;;;;;17.30;100.00;101261.25;5044751;28;20182;-74
2022/10/18 00:46:39;;;;;;;12.63;8.48;;;;;;;17.22;100.00;101251.00;5047530;28;20412;-75
2022/10/18 00:49:22;;;;;;;11.67;8.47;;;;;;;17.22;100.00;101255.47;5042307;28;20064;-76
2022/10/18 00:51:56;;;;;;;12.20;8.68;;;;;;;17.21;100.00;101254.63;5042924;28;20061;-74
2022/10/18 00:54:24;;;;;;;11.93;9.50;;;;;;;17.14;100.00;101232.75;5045682;28;20051;-73
2022/10/18 00:56:51;;;;;;;10.55;8.38;;;;;;;17.17;100.00;101239.69;5044854;28;20067;-74
2022/10/18 00:59:20;;;;;;;20.08;9.68;;;;;;;17.14;100.00;101235.41;5027939;28;20051;-74
2022/10/18 01:01:47;;;;;;;14.50;9.90;;;;;;;17.07;100.00;101217.13;5046187;28;20041;-75
2022/10/18 01:04:15;;;;;;;11.52;9.63;;;;;;;17.13;100.00;101239.03;5057208;28;20041;-75
2022/10/18 01:07:11;;;;;;;13.05;9.93;;;;;;;17.06;100.00;101243.03;5045397;28;20064;-76
2022/10/18 01:10:07;;;;;;;20.30;9.38;;;;;;;16.96;100.00;101233.84;5045108;28;20071;-77
2022/10/18 01:13:06;;;;;;;14.52;10.13;;;;;;;16.92;100.00;101220.75;5043869;28;20071;-75
2022/10/18 01:15:54;;;;;;;17.73;9.82;;;;;;;16.88;100.00;101227.22;5040474;28;20143;-78
2022/10/18 01:18:40;;;;;;;14.15;9.82;;;;;;;16.81;100.00;101224.94;5038384;28;20060;-76
2022/10/18 01:21:26;;;;;;;14.70;9.70;;;;;;;16.73;100.00;101224.50;5045436;28;20048;-77
2022/10/18 01:24:11;;;;;;;13.32;9.48;;;;;;;16.73;100.00;101229.84;5042166;28;20045;-73
2022/10/18 01:26:50;;;;;;;14.65;10.40;;;;;;;16.71;100.00;101226.41;5047391;28;20051;-75
2022/10/18 01:29:39;;;;;;;13.52;10.95;;;;;;;16.66;100.00;101224.97;5039202;28;20076;-75
2022/10/18 01:32:12;;;;;;;17.73;10.65;;;;;;;16.67;100.00;101234.72;5046073;28;20052;-75
2022/10/18 01:34:44;;;;;;;15.80;10.95;;;;;;;16.64;100.00;101226.88;5039664;28;20045;-74
2022/10/18 01:37:15;;;;;;;14.80;10.77;;;;;;;16.63;100.00;101217.13;5044655;28;20044;-74
2022/10/18 01:39:45;;;;;;;16.20;11.18;;;;;;;16.59;100.00;101220.91;5046060;28;20139;-76
2022/10/18 01:42:15;;;;;;;15.30;10.95;;;;;;;16.67;100.00;101235.59;5040392;28;20044;-76
2022/10/18 01:44:44;;;;;;;17.98;11.82;;;;;;;16.55;100.00;101212.19;5044430;28;20087;-76
2022/10/18 01:47:12;;;;;;;17.00;10.90;;;;;;;16.64;100.00;101234.91;5038496;28;20155;-75
2022/10/18 01:49:39;;;;;;;15.32;10.73;;;;;;;16.63;100.00;101225.16;5040378;28;20419;-76
2022/10/18 01:52:08;;;;;;;18.50;10.73;;;;;;;16.63;100.00;101209.97;5043477;28;20049;-77
2022/10/18 01:54:38;;;;;;;15.52;10.65;;;;;;;16.65;100.00;101217.91;5045501;28;20064;-74
2022/10/18 01:57:22;;;;;;;13.77;11.27;;;;;;;16.56;100.00;101197.88;5044216;28;20187;-74
2022/10/18 02:00:01;;;;;;;19.90;11.07;;;;;;;16.68;100.00;101207.03;5045256;28;20044;-77
2022/10/18 02:02:36;;;;;;;13.80;11.02;;;;;;;16.68;100.00;101212.38;5046086;28;20076;-74
2022/10/18 02:05:09;;;;;;;15.43;10.57;;;;;;;16.67;100.00;101213.34;5039107;28;20064;-75
2022/10/18 02:07:44;;;;;;;15.13;11.35;;;;;;;16.64;100.00;101198.31;5046391;28;20131;-76
2022/10/18 02:10:28;;;;;;;13.63;11.15;;;;;;;16.57;100.00;101188.91;5046224;28;20503;-74
2022/10/18 02:12:56;;;;;;;14.15;11.02;;;;;;;16.66;100.00;101200.91;5043736;28;20446;-75
2022/10/18 02:15:28;;;;;;;15.60;10.43;;;;;;;16.69;100.00;101203.38;5041041;28;20053;-73
2022/10/18 02:17:56;;;;;;;16.95;10.48;;;;;;;16.60;100.00;101188.72;5045354;28;20045;-76
2022/10/18 02:20:25;;;;;;;13.48;11.10;;;;;;;16.57;100.00;101185.34;5044538;28;20055;-75
2022/10/18 02:22:54;;;;;;;15.52;11.45;;;;;;;16.69;100.00;101203.38;5049484;28;20051;-75
2022/10/18 02:25:24;;;;;;;13.83;10.53;;;;;;;16.65;100.00;101210.75;5054054;28;20049;-77
2022/10/18 02:27:51;;;;;;;14.67;10.20;;;;;;;16.65;100.00;101204.53;5055850;28;20052;-73
2022/10/18 02:30:21;;;;;;;17.70;12.60;;;;;;;16.65;100.00;101201.84;5052268;28;20551;-76
2022/10/18 02:33:14;;;;;;;18.92;10.95;;;;;;;16.66;100.00;101195.56;5044957;28;20465;-74
2022/10/18 02:35:46;;;;;;;15.20;11.30;;;;;;;16.59;100.00;101180.78;5043319;28;20048;-76
2022/10/18 02:38:16;;;;;;;14.48;11.32;;;;;;;16.60;100.00;101186.03;5043342;28;20469;-75
2022/10/18 02:40:42;;;;;;;20.65;11.90;;;;;;;16.67;100.00;101183.91;5043494;28;20072;-73
2022/10/18 02:43:09;;;;;;;14.85;11.68;;;;;;;16.53;100.00;101162.47;5045860;28;20048;-76
2022/10/18 02:45:36;;;;;;;26.20;12.55;;;;;;;16.54;100.00;101172.16;5045874;28;20062;-77
2022/10/18 02:48:03;;;;;;;14.00;12.18;;;;;;;16.45;100.00;101166.44;5045972;28;20044;-75
2022/10/18 02:50:29;;;;;;;16.02;12.05;;;;;;;16.56;100.00;101194.34;5044914;28;20047;-75
2022/10/18 02:52:56;;;;;;;18.38;11.63;;;;;;;16.45;100.00;101176.25;5049221;28;20072;-75
2022/10/18 02:55:23;;;;;;;17.02;12.23;;;;;;;16.45;100.00;101169.09;5051466;28;20053;-76
2022/10/18 02:57:49;;;;;;;17.27;12.57;;;;;;;16.38;100.00;101170.41;5042927;28;20421;-73
2022/10/18 03:00:16;;;;;;;14.20;11.38;;;;;;;16.38;100.00;101170.41;5045645;28;20049;-76
2022/10/18 03:02:42;;;;;;;14.93;12.00;;;;;;;16.47;100.00;101180.56;5040805;28;20144;-74
2022/10/18 03:05:09;;;;;;;18.55;11.95;;;;;;;16.49;100.00;101183.16;5041764;28;20072;-73
2022/10/18 03:07:36;;;;;;;18.10;11.90;;;;;;;16.50;100.00;101182.22;5045042;28;20131;-75
2022/10/18 03:10:02;;;;;;;17.63;12.10;;;;;;;16.52;100.00;101192.81;5042667;28;20057;-75
2022/10/18 03:12:29;;;;;;;16.95;11.63;;;;;;;16.37;100.00;101170.53;5029238;28;20053;-72
2022/10/18 03:14:56;;;;;;;15.80;11.25;;;;;;;16.49;100.00;101200.06;5048660;28;20301;-77
2022/10/18 03:17:22;;;;;;;17.17;12.23;;;;;;;16.51;100.00;101215.16;5045604;28;20051;-75
2022/10/18 03:19:49;;;;;;;19.50;13.07;;;;;;;16.48;100.00;101226.88;5044931;28;20059;-73
2022/10/18 03:22:15;;;;;;;19.60;12.80;;;;;;;16.44;100.00;101234.22;5043630;28;20148;-73
2022/10/18 03:24:42;;;;;;;17.98;12.63;;;;;;;16.42;100.00;101240.59;5043330;28;20053;-74
2022/10/18 03:27:08;;;;;;;20.20;12.98;;;;;;;16.41;100.00;101249.56;5043651;28;20048;-75
2022/10/18 03:29:35;;;;;;;21.48;14.63;;;;;;;16.39;100.00;101263.00;5044786;28;20068;-71
2022/10/18 03:32:02;;;;;;;20.65;13.65;;;;;;;16.37;100.00;101283.63;5043920;28;20044;-74
2022/10/18 03:34:28;;;;;;;21.60;15.38;;;;;;;16.38;100.00;101289.81;5042712;28;20053;-76
2022/10/18 03:36:56;;;;;;;24.73;16.42;;;;;;;16.23;100.00;101263.97;5042356;28;20041;-74
2022/10/18 03:39:28;;;;;;;32.78;19.15;;;;;;;16.18;100.00;101266.94;5040953;28;20053;-75
2022/10/18 03:41:55;;;;;;;37.70;19.75;;;;;;;16.14;100.00;101254.69;5042387;28;20063;-72
2022/10/18 03:44:22;;;;;;;26.40;15.63;;;;;;;16.07;100.00;101251.47;5042377;28;20092;-75
2022/10/18 03:46:48;;;;;;;28.15;16.40;;;;;;;15.99;100.00;101239.50;5044163;28;20045;-78
2022/10/18 03:49:15;;;;;;;18.13;12.05;;;;;;;16.08;100.00;101255.88;5050240;28;20055;-82
2022/10/18 03:51:41;;;;;;;19.27;12.70;;;;;;;16.07;100.00;101259.50;5056996;28;20083;-74
2022/10/18 03:54:08;;;;;;;9.40;5.68;;;;;;;16.04;100.00;101265.03;5058581;28;20449;-82
2022/10/18 03:56:35;;;;;;;12.05;7.15;;;;;;;15.98;100.00;101253.81;5050225;28;20060;-78
2022/10/18 03:59:03;;;;;;;9.88;6.45;;;;;;;15.86;100.00;101238.47;5049228;28;20053;-77
2022/10/18 04:01:30;;;;;;;8.90;5.60;;;;;;;15.86;100.00;101251.84;5051928;28;20061;-83
2022/10/18 04:03:56;;;;;;;6.70;4.25;;;;;;;15.76;100.00;101244.31;5053198;28;20045;-81
2022/10/18 04:06:23;;;;;;;7.35;3.05;;;;;;;15.74;100.00;101243.53;5052354;28;20040;-80
2022/10/18 04:08:50;;;;;;;5.85;3.15;;;;;;;15.73;100.00;101257.00;5052225;28;20489;-78
2022/10/18 04:11:16;;;;;;;7.35;2.83;;;;;;;15.70;100.00;101236.66;5052157;28;20064;-78
2022/10/18 04:13:43;;;;;;;5.32;3.13;;;;;;;15.59;100.00;101208.78;5052228;28;20127;-79
2022/10/18 04:16:09;;;;;;;7.28;3.67;;;;;;;15.64;100.00;101215.63;5056636;28;20056;-81
2022/10/18 04:18:36;;;;;;;6.28;3.80;;;;;;;15.59;100.00;101217.66;5049145;28;20049;-84
2022/10/18 04:21:03;;;;;;;6.53;3.65;;;;;;;15.49;100.00;101203.06;5050795;28;20144;-83
2022/10/18 04:23:30;;;;;;;8.05;3.97;;;;;;;15.58;100.00;101232.00;5044887;28;20030;-77
2022/10/18 04:26:01;;;;;;;4.68;3.22;;;;;;;15.57;100.00;101234.75;5049785;28;22124;-85
2022/10/18 04:28:28;;;;;;;5.78;3.10;;;;;;;15.56;100.00;101268.59;5048995;28;20448;-82
2022/10/18 04:30:55;;;;;;;6.15;3.28;;;;;;;15.52;100.00;101290.13;5047930;28;20470;-85
2022/10/18 04:33:22;;;;;;;6.72;3.10;;;;;;;15.48;100.00;101312.59;5052179;28;20067;-84
2022/10/18 04:35:51;;;;;;;8.20;3.70;;;;;;;15.43;100.00;101281.66;5046513;28;20109;-84
2022/10/18 04:38:18;;;;;;;8.10;3.88;;;;;;;15.40;100.00;101254.28;5051502;28;20041;-83
2022/10/18 04:40:45;;;;;;;5.82;3.78;;;;;;;15.42;100.00;101268.44;5063511;28;20044;-75
2022/10/18 04:43:12;;;;;;;4.47;2.78;;;;;;;15.54;100.00;101288.25;5058950;28;20045;-83
2022/10/18 04:45:38;;;;;;;6.20;3.08;;;;;;;15.50;100.00;101282.22;5047849;28;20123;-83
2022/10/18 04:48:05;;;;;;;6.78;3.22;;;;;;;15.51;100.00;101277.72;5047533;28;20055;-82
2022/10/18 04:50:32;;;;;;;8.35;3.50;;;;;;;15.51;100.00;101289.28;5047656;28;20052;-82
2022/10/18 04:52:59;;;;;;;8.30;4.25;;;;;;;15.51;100.00;101291.09;5045967;28;20041;-82
2022/10/18 04:55:25;;;;;;;6.10;3.60;;;;;;;15.46;100.00;101275.31;5051282;28;20148;-78
2022/10/18 04:57:52;;;;;;;5.72;3.20;;;;;;;15.50;100.00;101270.66;5048224;28;20076;-79
2022/10/18 05:00:19;;;;;;;9.20;3.67;;;;;;;15.53;100.00;101279.38;5046506;28;20049;-80
2022/10/18 05:02:45;;;;;;;7.10;4.22;;;;;;;15.54;100.00;101267.75;5047859;28;20547;-76
2022/10/18 05:05:12;;;;;;;9.57;3.88;;;;;;;15.51;100.00;101278.59;5045251;28;20549;-81
2022/10/18 05:07:40;;;;;;;5.50;3.47;;;;;;;15.52;100.00;101274.13;5047631;28;20127;-80
2022/10/18 05:10:07;;;;;;;10.77;4.00;;;;;;;15.53;100.00;101274.03;5049529;28;20066;-78
2022/10/18 05:12:33;;;;;;;7.00;3.60;;;;;;;15.54;100.00;101262.44;5044792;28;20120;-79
2022/10/18 05:15:00;;;;;;;5.75;3.45;;;;;;;15.49;100.00;101264.47;5043707;28;20152;-81
2022/10/18 05:17:27;;;;;;;5.15;2.83;;;;;;;15.49;100.00;101272.47;5041176;28;20512;-81
2022/10/18 05:19:54;;;;;;;5.57;3.33;;;;;;;15.45;100.00;101262.91;5028360;28;20493;-80
2022/10/18 05:22:20;;;;;;;6.38;3.55;;;;;;;15.41;100.00;101240.88;5047024;28;20061;-82
2022/10/18 05:24:47;;;;;;;5.50;3.08;;;;;;;15.44;100.00;101255.84;5046425;28;20409;-80
2022/10/18 05:27:13;;;;;;;3.78;2.60;;;;;;;15.30;100.00;101240.56;5054400;28;20075;-77
2022/10/18 05:29:40;;;;;;;8.10;2.85;;;;;;;15.37;100.00;101255.31;5058658;28;20564;-80
2022/10/18 05:32:07;;;;;;;5.15;2.40;;;;;;;15.24;100.00;101232.03;5050429;28;20095;-76
2022/10/18 05:34:34;;;;;;;3.20;2.17;;;;;;;15.22;100.00;101228.59;5055151;28;20049;-78
2022/10/18 05:37:01;;;;;;;5.20;2.63;;;;;;;15.33;100.00;101236.88;5046991;28;20124;-78
2022/10/18 05:39:28;;;;;;;4.32;2.50;;;;;;;15.34;100.00;101241.25;5050901;28;20056;-78
2022/10/18 05:41:55;;;;;;;4.65;2.40;;;;;;;15.33;100.00;101236.88;5052407;28;20045;-78
2022/10/18 05:44:22;;;;;;;6.47;2.65;;;;;;;15.30;100.00;101226.34;5047803;28;20063;-79
2022/10/18 05:46:48;;;;;;;3.60;2.17;;;;;;;15.22;100.00;101224.09;5047560;28;20049;-78
2022/10/18 05:49:15;;;;;;;4.75;2.55;;;;;;;15.24;100.00;101227.56;5038822;28;20071;-77
2022/10/18 05:51:42;;;;;;;5.55;2.80;;;;;;;15.26;100.00;101219.47;5043968;28;20077;-79
2022/10/18 05:54:10;;;;;;;4.90;3.28;;;;;;;15.28;100.00;101237.09;5045240;28;20055;-82
2022/10/18 05:56:37;;;;;;;4.82;3.05;;;;;;;15.31;100.00;101220.94;5039273;28;20065;-75
2022/10/18 05:59:08;;;;;;;5.03;3.85;;;;;;;15.36;100.00;101221.56;5038034;28;20112;-79
2022/10/18 06:01:36;;;;;;;6.50;3.53;;;;;;;15.36;100.00;101223.38;5042642;28;20049;-77
2022/10/18 06:04:02;;;;;;;5.85;3.17;;;;;;;15.24;100.00;101200.88;5045835;28;20092;-78
2022/10/18 06:06:30;;;;;;;7.00;3.83;;;;;;;15.33;100.00;101236.88;5030229;28;20049;-79
2022/10/18 06:08:57;;;;;;;7.63;3.60;;;;;;;15.27;100.00;101243.38;5041723;28;20041;-78
2022/10/18 06:11:23;;;;;;;5.85;3.80;;;;;;;15.21;100.00;101274.88;5045477;28;20073;-81
2022/10/18 06:13:51;;;;;;;6.85;4.55;;;;;;;15.20;100.00;101298.03;5046547;28;20055;-79
2022/10/18 06:16:23;;;;;;;8.00;4.28;;;;;;;15.19;100.00;101280.28;5046609;28;20059;-78
2022/10/18 06:18:56;;;;;;;7.70;3.83;;;;;;;15.23;100.00;101281.88;5045600;28;20094;-77
2022/10/18 06:21:23;;;;;;;11.48;3.97;;;;;;;15.24;100.00;101288.94;5047359;28;20056;-79
2022/10/18 06:23:51;;;;;;;9.68;4.45;;;;;;;15.23;100.00;101275.66;5050185;28;20053;-80
2022/10/18 06:26:19;;;;;;;8.40;3.78;;;;;;;15.32;100.00;101269.84;5046775;28;20491;-78
2022/10/18 06:28:45;;;;;;;7.15;3.80;;;;;;;15.33;100.00;101269.75;5051604;28;20041;-75
2022/10/18 06:31:13;;;;;;;9.02;4.28;;;;;;;15.31;100.00;101271.63;5053841;28;20052;-76
2022/10/18 06:33:40;;;;;;;9.98;4.43;;;;;;;15.25;100.00;101260.44;5051246;28;20053;-79
2022/10/18 06:36:11;;;;;;;9.40;4.03;;;;;;;15.27;100.00;101259.41;5045856;28;20045;-80
2022/10/18 06:38:37;;;;;;;;;;;;;;;15.37;100.00;101262.47;5046155;28;20141;-79
2022/10/18 06:41:05;;;;;;;7.78;4.53;;;;;;;15.41;100.00;101259.56;5046966;28;20023;-77
2022/10/18 06:43:32;;;;;;;11.52;4.28;;;;;;;15.43;100.00;101270.13;5045943;28;20133;-79
2022/10/18 06:46:01;;;;;;;10.85;4.70;;;;;;;15.38;100.00;101282.88;5044773;28;20095;-76
2022/10/18 06:48:28;;;;;;;15.07;5.40;;;;;;;15.34;100.00;101294.63;5044946;28;20131;-77
2022/10/18 06:51:00;;;;;;;10.18;5.55;;;;;;;15.28;100.00;101285.13;5043378;28;20056;-78
2022/10/18 06:53:29;;;;;;;10.02;5.18;;;;;;;15.26;100.00;101275.50;5048977;28;20065;-78
2022/10/18 06:56:04;;;;;;;11.98;5.70;;;;;;;15.32;100.00;101296.53;5045595;28;20053;-78
2022/10/18 06:58:34;;;;;;;9.50;4.97;;;;;;;15.28;100.00;101305.63;5045689;28;20059;-77
2022/10/18 07:01:12;;;;;;;11.30;5.63;;;;;;;15.31;100.00;101324.16;5049072;28;20141;-77
2022/10/18 07:03:39;;;;;;;12.50;7.30;;;;;;;15.30;100.00;101336.63;5044137;28;20084;-78
2022/10/18 07:06:08;;;;;;;13.98;6.80;;;;;;;15.25;100.00;101333.34;5042068;28;20049;-76
2022/10/18 07:08:35;;;;;;;14.18;6.53;;;;;;;15.25;100.00;101336.03;5043234;28;20056;-76
2022/10/18 07:11:03;;;;;;;14.02;6.85;;;;;;;15.19;100.00;101319.44;5046406;28;20057;-76
2022/10/18 07:13:31;;;;;;;14.82;7.05;;;;;;;15.27;100.00;101315.44;5042424;28;20049;-76
2022/10/18 07:16:10;;;;;;;11.68;6.00;;;;;;;15.31;100.00;101308.13;5033830;28;20045;-79
2022/10/18 07:18:48;;;;;;;10.45;5.82;;;;;;;15.37;100.00;101307.81;5038415;28;20968;-76
2022/10/18 07:21:20;;;;;;;14.80;6.47;;;;;;;15.38;100.00;101289.06;5036956;28;20046;-79
2022/10/18 07:23:48;;;;;;;15.45;6.88;;;;;;;15.49;100.00;101296.50;5037813;28;20607;-78
2022/10/18 07:26:17;;;;;;;11.25;6.60;;;;;;;15.55;100.00;101312.22;5037373;28;20045;-78
2022/10/18 07:28:47;;;;;;;12.05;6.90;;;;;;;15.61;100.00;101319.91;5040751;28;20049;-77
2022/10/18 07:31:14;;;;;;;14.13;7.95;;;;;;;15.55;100.00;101324.69;5037341;28;20071;-76
2022/10/18 07:33:44;;;;;;;16.92;6.78;;;;;;;15.51;100.00;101326.66;5037876;28;20061;-76
2022/10/18 07:36:12;;;;;;;16.10;7.63;;;;;;;15.53;100.00;101346.13;5040629;28;20466;-78
2022/10/18 07:38:39;;;;;;;14.10;7.45;;;;;;;15.54;100.00;101331.84;5044162;28;20493;-75
2022/10/18 07:41:07;;;;;;;15.73;8.52;;;;;;;15.64;100.00;101333.09;5047283;28;20045;-76
2022/10/18 07:43:34;;;;;;;19.65;8.30;;;;;;;15.67;100.00;101343.63;5041943;28;20574;-77
2022/10/18 07:46:04;;;;;;;18.02;8.45;;;;;;;15.63;100.00;101339.38;5045437;28;20067;-76
2022/10/18 07:48:31;;;;;;;17.58;8.10;;;;;;;15.59;100.00;101343.13;5041857;28;20140;-77
2022/10/18 07:50:59;;;;;;;17.73;8.38;;;;;;;15.66;100.00;101352.56;5045639;28;20160;-76
2022/10/18 07:53:29;;;;;;;22.20;8.93;;;;;;;15.63;100.00;101351.84;5040806;28;20474;-78
2022/10/18 07:55:58;;;;;;;16.42;8.05;;;;;;;15.68;100.00;101349.81;5040645;28;20055;-75
2022/10/18 07:58:25;;;;;;;12.65;7.68;;;;;;;15.75;100.00;101341.38;5026483;28;20663;-77
2022/10/18 08:00:51;;;;;;;14.05;7.80;;;;;;;15.83;100.00;101334.78;5044334;28;20047;-76
2022/10/18 08:03:18;;;;;;;16.60;8.80;;;;;;;15.82;100.00;101333.06;5041711;28;20100;-74
2022/10/18 08:05:52;;;;;;;14.70;8.32;;;;;;;15.79;100.00;101334.94;5045166;28;20055;-75
2022/10/18 08:08:21;;;;;;;13.00;8.32;;;;;;;15.87;100.00;101341.69;5048115;28;20625;-78
2022/10/18 08:10:48;;;;;;;18.92;9.02;;;;;;;15.96;100.00;101339.38;5046965;28;20143;-77
2022/10/18 08:13:15;;;;;;;15.63;8.48;;;;;;;16.07;100.00;101350.34;5048558;28;20503;-77
2022/10/18 08:15:42;;;;;;;19.38;12.38;;;;;;;16.18;100.00;101347.09;5045435;28;20499;-77
2022/10/18 08:18:09;;;;;;;15.25;9.07;;;;;;;16.11;100.00;101343.88;5056048;28;20051;-76
2022/10/18 08:20:36;;;;;;;11.65;7.97;;;;;;;16.08;100.00;101360.06;5050901;28;20053;-77
2022/10/18 08:23:03;;;;;;;14.40;7.43;;;;;;;16.10;100.00;101349.31;5052012;28;20628;-79
2022/10/18 08:25:30;;;;;;;13.02;8.48;;;;;;;16.14;100.00;101349.06;5050872;28;20076;-78
2022/10/18 08:28:00;;;;;;;19.35;10.52;;;;;;;16.27;100.00;101356.41;5049471;28;20084;-77
2022/10/18 08:30:26;;;;;;;16.00;8.93;;;;;;;16.24;100.00;101362.78;5048681;28;20049;-77
2022/10/18 08:32:53;;;;;;;24.20;11.40;;;;;;;16.11;100.00;101357.25;5049998;28;20059;-78
2022/10/18 08:35:19;;;;;;;22.92;12.50;;;;;;;16.12;100.00;101372.34;5050107;28;20045;-77
2022/10/18 08:37:47;;;;;;;27.48;13.75;;;;;;;16.11;100.00;101375.94;5050744;28;20045;-77
2022/10/18 08:40:14;;;;;;;30.48;15.43;;;;;;;16.11;100.00;101372.41;5047655;28;20055;-78
2022/10/18 08:43:06;;;;;;;29.05;16.38;;;;;;;16.10;100.00;101370.69;5049809;28;20149;-78
2022/10/18 08:45:37;;;;;;;38.85;17.92;;;;;;;16.11;100.00;101377.75;5052435;28;20045;-77
2022/10/18 08:48:20;;;;;;;39.08;18.52;;;;;;;16.14;100.00;101377.59;5047721;28;20041;-78
2022/10/18 08:50:49;;;;;;;41.65;20.80;;;;;;;16.21;100.00;101389.69;5043205;28;20049;-77
2022/10/18 08:53:19;;;;;;;36.10;18.77;;;;;;;16.18;100.00;101370.28;5047680;28;20136;-79
2022/10/18 08:55:57;;;;;;;32.13;16.70;;;;;;;16.06;100.00;101353.09;5046767;28;20044;-77
2022/10/18 08:58:28;;;;;;;27.58;14.15;;;;;;;16.27;100.00;101375.97;5044211;28;20041;-77
2022/10/18 09:00:57;;;;;;;30.05;15.55;;;;;;;16.36;100.00;101370.13;5045240;28;20069;-78
2022/10/18 09:03:53;;;;;;;29.88;14.90;;;;;;;16.43;100.00;101375.97;5048058;28;20052;-79
2022/10/18 09:06:50;;;;;;;23.15;12.65;;;;;;;16.47;100.00;101375.75;5047085;28;20045;-78
2022/10/18 09:09:26;;;;;;;19.95;11.00;;;;;;;16.49;100.00;101373.84;5050836;28;20037;-79
2022/10/18 09:12:29;;;;;;;21.70;10.27;;;;;;;16.53;100.00;101387.03;5047187;28;20630;-78
2022/10/18 09:15:20;;;;;;;16.17;9.75;;;;;;;16.69;100.00;101382.56;5047027;28;20055;-77
2022/10/18 09:18:02;;;;;;;18.67;10.93;;;;;;;16.87;100.00;101376.16;5040976;28;20135;-77
2022/10/18 09:20:51;;;;;;;23.02;13.00;;;;;;;17.15;100.00;101381.66;5041339;28;20132;-78
2022/10/18 09:23:45;;;;;;;19.45;11.38;;;;;;;17.31;100.00;101380.75;5036470;28;20781;-77
2022/10/18 09:26:20;;;;;;;17.98;11.00;;;;;;;17.40;100.00;101380.19;5042409;28;20515;-77
2022/10/18 09:29:12;;;;;;;12.63;8.80;;;;;;;17.47;100.00;101389.59;5040655;28;20045;-77
2022/10/18 09:32:03;;;;;;;9.32;6.00;;;;;;;17.48;100.00;101388.63;5026436;28;20041;-78
2022/10/18 09:34:32;;;;;;;8.48;5.03;;;;;;;17.21;100.00;101387.59;5047172;28;20067;-79
2022/10/18 09:37:00;;;;;;;6.38;3.90;;;;;;;17.05;100.00;101391.16;5044146;28;20051;-78
2022/10/18 09:39:34;;;;;;;6.93;4.45;;;;;;;17.00;100.00;101393.22;5044182;28;20059;-78
2022/10/18 09:42:13;;;;;;;6.90;4.57;;;;;;;16.96;100.00;101381.00;5047980;28;20049;-78
2022/10/18 09:45:06;;;;;;;5.38;4.05;;;;;;;17.16;100.00;101395.88;5046002;28;20041;-77
2022/10/18 09:47:42;;;;;;;8.30;4.70;;;;;;;17.25;100.00;101399.84;5047003;28;20080;-77
2022/10/18 09:50:31;;;;;;;7.50;4.65;;;;;;;17.22;100.00;101392.00;5043859;28;20044;-77
2022/10/18 09:53:12;;;;;;;10.38;5.45;;;;;;;17.33;100.00;101389.53;5052080;28;20044;-77
2022/10/18 09:55:59;;;;;;;7.15;5.40;;;;;;;17.53;100.00;101389.22;5049289;28;20045;-77
2022/10/18 09:58:37;;;;;;;8.43;6.32;;;;;;;17.66;100.00;101384.88;5036127;28;20095;-77
2022/10/18 10:01:05;;;;;;;10.75;7.50;;;;;;;17.74;100.00;101382.59;5050659;28;20048;-77
2022/10/18 10:03:32;;;;;;;9.10;6.35;;;;;;;17.76;100.00;101371.78;5044224;28;20042;-77
2022/10/18 10:06:11;;;;;;;9.00;6.60;;;;;;;17.66;100.00;101379.50;5044152;28;20059;-78
2022/10/18 10:08:46;;;;;;;10.13;6.82;;;;;;;17.52;100.00;101384.81;5047816;28;20037;-76
2022/10/18 10:11:30;;;;;;;8.07;5.53;;;;;;;17.45;100.00;101386.16;5044792;28;20140;-78
2022/10/18 10:14:07;;;;;;;6.82;5.43;;;;;;;17.42;100.00;101391.69;5036763;28;20051;-76
2022/10/18 10:16:43;;;;;;;7.95;4.43;;;;;;;17.46;100.00;101406.63;5046474;28;20056;-78
2022/10/18 10:19:16;;;;;;;6.78;4.50;;;;;;;17.52;100.00;101408.91;5041391;28;20140;-82
2022/10/18 10:21:43;;;;;;;6.55;4.00;;;;;;;17.53;100.00;101414.19;5046053;28;20071;-79
2022/10/18 10:24:20;;;;;;;7.15;4.00;;;;;;;17.43;100.00;101418.38;5042064;28;20136;-77
2022/10/18 10:26:49;;;;;;;6.43;3.75;;;;;;;17.31;100.00;101416.44;5051117;28;20405;-85
2022/10/18 10:29:46;;;;;;;10.27;3.70;;;;;;;17.33;100.00;101429.69;5061166;28;20073;-78
2022/10/18 10:32:15;;;;;;;3.83;3.22;;;;;;;17.31;100.00;101426.28;5044468;28;20469;-79
2022/10/18 10:34:42;;;;;;;8.70;7.47;;;;;;;17.39;100.00;101411.47;5041850;28;20112;-77
2022/10/18 10:37:30;;;;;;;8.52;3.95;;;;;;;17.53;100.00;101419.53;5044979;28;20564;-87
2022/10/18 10:40:03;;;;;;;5.65;3.20;;;;;;;17.59;100.00;101420.13;5039526;28;20098;-79
2022/10/18 10:43:00;;;;;;;4.03;2.75;;;;;;;17.65;100.00;101406.38;5044537;28;20053;-78
2022/10/18 10:45:59;;;;;;;5.82;2.58;;;;;;;17.71;100.00;101416.75;5042718;28;20056;-82
2022/10/18 10:48:27;;;;;;;3.45;2.03;;;;;;;17.77;100.00;101422.59;5045532;28;20044;-82
2022/10/18 10:51:06;;;;;;;6.28;4.32;;;;;;;17.84;100.00;101423.06;5043778;28;20045;-81
2022/10/18 10:53:49;;;;;;;5.68;3.55;;;;;;;17.82;100.00;101424.97;5046863;28;20049;-79
2022/10/18 10:56:23;;;;;;;7.00;3.10;;;;;;;17.88;100.00;101425.50;5041926;28;20052;-76
2022/10/18 10:58:52;;;;;;;2.05;1.75;;;;;;;17.93;100.00;101430.56;5043419;28;20072;-80
2022/10/18 11:01:23;;;;;;;3.33;2.03;;;;;;;17.97;100.00;101425.88;5049765;28;20057;-80
2022/10/18 11:03:50;;;;;;;;;;;;;;;18.03;100.00;101431.72;5048813;28;20052;-81
2022/10/18 11:06:35;;;;;;;2.72;1.77;;;;;;;18.15;100.00;101427.41;5045172;28;19997;-77
2022/10/18 11:09:11;;;;;;;3.47;1.83;;;;;;;18.27;100.00;101426.63;5046789;28;20045;-75
2022/10/18 11:11:48;;;;;;;2.80;1.40;;;;;;;18.21;100.00;101424.38;5053201;28;20052;-78
2022/10/18 11:14:26;;;;;;;3.03;1.40;;;;;;;18.17;100.00;101425.50;5047742;28;20053;-80
2022/10/18 11:17:15;;;;;;;2.92;2.03;;;;;;;18.13;100.00;101414.09;5047385;28;20047;-76
2022/10/18 11:20:18;;;;;;;3.97;1.73;;;;;;;18.04;100.00;101419.19;5050134;28;20050;-83
2022/10/18 11:23:09;;;;;;;1.67;1.30;;;;;;;17.97;100.00;101415.16;5053022;28;20047;-79
2022/10/18 11:26:00;;;;;;;1.92;1.50;;;;;;;18.03;100.00;101422.81;5043129;28;20381;-74
2022/10/18 11:28:35;;;;;;;3.25;1.55;;;;;;;18.07;100.00;101422.53;5049807;28;20457;-79
2022/10/18 11:31:21;;;;;;;3.53;1.48;;;;;;;18.10;100.00;101416.13;5043093;28;20037;-85